Time;durP1;ratioP1;P1;durP2;ratioP2;P2;SDS_P1;SDS_P2;PMS_P1;PMS_P2;Temp;Humidity;BMP_temperature;BMP_pressure;BME280_temperature;BME280_humidity;BME280_pressure;Samples;Min_cycle;Max_cycle;Signal;HPM_P1;HPM_P2
2023/01/07 00:02:17;;;;;;;4.65;2.03;;;;;;;-17.46;55.03;100269.25;5088314;28;20083;-44
2023/01/07 00:04:43;;;;;;;5.35;2.03;;;;;;;-17.28;54.92;100303.13;5089382;28;20036;-45
2023/01/07 00:07:09;;;;;;;4.82;2.15;;;;;;;-17.29;54.78;100310.44;5089246;28;20083;-45
2023/01/07 00:09:54;;;;;;;3.28;1.92;;;;;;;-17.34;55.25;100309.16;5087600;28;20047;-43
2023/01/07 00:12:57;;;;;;;7.88;2.13;;;;;;;-17.44;55.17;100314.13;5088152;28;20043;-44
2023/01/07 00:15:41;;;;;;;1.40;1.27;;;;;;;-17.72;55.31;100279.50;5087160;28;20079;-43
2023/01/07 00:18:45;;;;;;;8.07;1.83;;;;;;;-17.56;55.08;100320.50;5074192;28;20040;-43
2023/01/07 00:21:14;;;;;;;2.05;1.73;;;;;;;-17.63;54.95;100310.84;5070105;28;20080;-44
2023/01/07 00:24:23;;;;;;;2.65;0.80;;;;;;;-17.70;55.46;100310.31;5089560;28;20035;-42
2023/01/07 00:27:07;;;;;;;7.85;2.28;;;;;;;-17.79;55.14;100299.56;5086621;28;20224;-43
2023/01/07 00:29:52;;;;;;;6.80;2.05;;;;;;;-18.24;55.34;100224.56;5088662;28;20051;-43
2023/01/07 00:32:17;;;;;;;5.03;2.47;;;;;;;-17.80;55.27;100299.47;5079411;28;20598;-44
2023/01/07 00:35:22;;;;;;;4.68;2.08;;;;;;;-17.80;55.42;100305.31;5089065;28;20494;-45
2023/01/07 00:38:07;;;;;;;5.05;2.15;;;;;;;-18.11;55.45;100254.66;5086030;28;20036;-45
2023/01/07 00:41:28;;;;;;;7.68;2.05;;;;;;;-17.83;55.82;100301.66;5087715;28;20035;-45
2023/01/07 00:44:13;;;;;;;1.85;1.00;;;;;;;-17.82;55.37;100295.97;5087783;28;20036;-43
2023/01/07 00:46:58;;;;;;;3.30;1.60;;;;;;;-17.84;55.18;100302.41;5089330;28;20036;-44
2023/01/07 00:49:46;;;;;;;4.40;2.67;;;;;;;-17.88;55.93;100303.75;5074956;28;20047;-43
2023/01/07 00:52:13;;;;;;;3.80;2.08;;;;;;;-18.17;55.92;100266.53;5082813;28;20042;-44
2023/01/07 00:54:57;;;;;;;1.90;0.90;;;;;;;-17.92;56.24;100305.84;5070612;28;20082;-44
2023/01/07 00:58:19;;;;;;;1.77;1.00;;;;;;;-17.94;56.12;100308.19;5085822;28;20047;-44
2023/01/07 01:01:41;;;;;;;2.13;1.42;;;;;;;-17.94;55.90;100307.31;5100383;28;20060;-44
2023/01/07 01:04:26;;;;;;;9.48;3.33;;;;;;;-17.99;56.03;100308.53;5089470;28;20050;-43
2023/01/07 01:06:52;;;;;;;7.20;1.38;;;;;;;-17.98;56.49;100310.28;5088629;28;20910;-43
2023/01/07 01:09:36;;;;;;;2.67;1.35;;;;;;;-17.91;56.58;100313.44;5087893;28;20245;-43
2023/01/07 01:12:02;;;;;;;2.80;1.48;;;;;;;-17.83;56.18;100314.09;5121250;27;20575;-43
2023/01/07 01:14:28;;;;;;;2.55;1.13;;;;;;;-17.73;55.92;100306.69;5090462;28;20051;-44
2023/01/07 01:16:54;;;;;;;5.22;1.83;;;;;;;-17.56;56.17;100310.56;5091541;28;20125;-42
2023/01/07 01:19:39;;;;;;;1.40;0.93;;;;;;;-17.41;56.11;100307.78;5088421;28;20079;-44
2023/01/07 01:22:24;;;;;;;2.83;1.25;;;;;;;-17.52;55.98;100277.81;5088275;28;20040;-44
2023/01/07 01:25:09;;;;;;;5.00;1.95;;;;;;;-17.39;55.94;100291.41;5069341;28;20051;-44
2023/01/07 01:28:31;;;;;;;5.13;1.75;;;;;;;-17.13;55.93;100313.47;5085700;28;20052;-44
2023/01/07 01:31:16;;;;;;;1.90;1.25;;;;;;;-17.01;56.20;100323.56;5103453;28;20068;-44
2023/01/07 01:34:19;;;;;;;7.22;1.27;;;;;;;-17.01;55.78;100326.03;5087370;28;20496;-43
2023/01/07 01:36:47;;;;;;;6.70;1.73;;;;;;;-16.96;55.81;100329.78;5086041;28;20048;-43
2023/01/07 01:39:32;;;;;;;7.32;1.90;;;;;;;-16.95;55.70;100329.00;5070706;28;20055;-43
2023/01/07 01:42:38;;;;;;;8.20;2.03;;;;;;;-16.95;55.67;100332.38;5064710;28;20044;-42
2023/01/07 01:45:25;;;;;;;2.30;0.90;;;;;;;-16.98;55.83;100341.19;5081408;28;20044;-43
2023/01/07 01:47:58;;;;;;;2.53;1.25;;;;;;;-17.04;56.10;100344.03;5069843;28;20047;-43
2023/01/07 01:50:44;;;;;;;3.58;1.58;;;;;;;-17.55;55.59;100273.47;5086283;28;20122;-43
2023/01/07 01:53:17;;;;;;;;;;;;;;;-17.12;56.24;100356.56;5069918;28;20550;-43
2023/01/07 01:56:22;;;;;;;14.57;1.63;;;;;;;-17.21;56.03;100369.06;5086491;28;19947;-42
2023/01/07 01:59:26;;;;;;;8.05;1.52;;;;;;;-17.24;55.77;100368.84;5087125;28;20427;-43
2023/01/07 02:02:13;;;;;;;3.20;1.60;;;;;;;-17.24;55.78;100372.19;5086284;28;20052;-42
2023/01/07 02:04:58;;;;;;;5.32;1.60;;;;;;;-17.25;56.09;100379.50;5060237;28;20435;-46
2023/01/07 02:07:43;;;;;;;3.92;1.75;;;;;;;-17.25;55.73;100379.50;5069613;28;20431;-43
2023/01/07 02:10:31;;;;;;;2.40;0.55;;;;;;;-17.62;55.55;100338.28;5114518;28;20514;-43
2023/01/07 02:13:35;;;;;;;2.60;1.55;;;;;;;-17.46;56.02;100395.06;5101042;27;20047;-44
2023/01/07 02:16:20;;;;;;;2.08;1.50;;;;;;;-17.50;55.83;100383.13;5080426;28;20130;-50
2023/01/07 02:19:23;;;;;;;3.00;1.75;;;;;;;-17.55;56.00;100391.78;5087052;28;20047;-43
2023/01/07 02:21:55;;;;;;;7.95;1.45;;;;;;;-17.61;55.55;100391.28;5086863;28;20040;-43
2023/01/07 02:25:17;;;;;;;7.63;2.25;;;;;;;-17.74;55.93;100400.16;5084609;28;20040;-42
2023/01/07 02:28:22;;;;;;;4.57;1.60;;;;;;;-17.82;55.76;100396.13;5084116;28;20058;-43
2023/01/07 02:31:15;;;;;;;4.47;2.33;;;;;;;-17.87;55.57;100394.00;5068324;28;20152;-43
2023/01/07 02:34:20;;;;;;;10.75;1.52;;;;;;;-17.97;55.47;100412.16;5073374;28;20044;-42
2023/01/07 02:37:24;;;;;;;9.43;2.03;;;;;;;-18.05;55.58;100415.56;5088928;28;20503;-43
2023/01/07 02:40:32;;;;;;;2.05;1.38;;;;;;;-18.10;55.78;100416.78;5100456;28;20031;-43
2023/01/07 02:43:35;;;;;;;5.05;1.65;;;;;;;-18.15;55.36;100413.88;5092133;28;20047;-42
2023/01/07 02:46:57;;;;;;;1.02;0.60;;;;;;;-18.19;55.69;100411.88;5074139;28;20101;-42
2023/01/07 02:49:42;;;;;;;4.35;2.03;;;;;;;-18.24;56.10;100407.22;5071224;28;20105;-42
2023/01/07 02:52:27;;;;;;;5.03;0.77;;;;;;;-18.29;55.94;100419.22;5070813;28;20666;-43
2023/01/07 02:55:42;;;;;;;0.63;0.50;;;;;;;-18.29;56.45;100426.66;5076707;28;20435;-43
2023/01/07 02:58:17;;;;;;;3.13;1.38;;;;;;;-18.23;56.47;100432.19;5072626;28;20154;-43
2023/01/07 03:01:26;;;;;;;5.95;2.13;;;;;;;-18.21;56.69;100438.13;5069475;28;20048;-42
2023/01/07 03:04:39;;;;;;;8.10;1.90;;;;;;;-18.15;56.68;100447.75;5083539;28;20082;-42
2023/01/07 03:07:44;;;;;;;1.63;0.77;;;;;;;-18.08;56.38;100450.91;5106107;28;20183;-43
2023/01/07 03:10:28;;;;;;;3.33;1.55;;;;;;;-18.03;56.04;100455.41;5073220;28;20047;-43
2023/01/07 03:13:19;;;;;;;2.58;1.35;;;;;;;-17.98;56.40;100462.53;5107134;28;20074;-43
2023/01/07 03:16:24;;;;;;;3.40;1.75;;;;;;;-17.89;56.00;100462.47;5088466;28;20066;-43
2023/01/07 03:19:00;;;;;;;3.17;1.38;;;;;;;-17.84;56.12;100469.59;5106003;28;20039;-43
2023/01/07 03:22:05;;;;;;;2.55;1.20;;;;;;;-17.80;55.94;100473.22;5069609;28;20051;-43
2023/01/07 03:25:09;;;;;;;5.40;2.03;;;;;;;-17.79;55.81;100470.03;5094818;28;20126;-42
2023/01/07 03:28:12;;;;;;;6.35;1.98;;;;;;;-17.79;56.22;100463.41;5107291;28;20054;-42
2023/01/07 03:30:57;;;;;;;5.28;1.58;;;;;;;-17.83;56.18;100470.47;5085797;28;20052;-42
2023/01/07 03:33:46;;;;;;;2.17;1.52;;;;;;;-17.90;56.22;100475.63;5065092;28;20050;-42
2023/01/07 03:36:52;;;;;;;1.55;0.95;;;;;;;-17.92;56.45;100472.13;5109153;28;20044;-42
2023/01/07 03:39:38;;;;;;;7.30;1.58;;;;;;;-17.95;56.08;100469.41;5092301;28;20156;-42
2023/01/07 03:44:51;;;;;;;3.28;1.33;;;;;;;-18.01;55.73;100468.84;5075497;28;20396;-43
2023/01/07 03:47:54;;;;;;;3.20;1.27;;;;;;;-18.06;55.95;100468.44;5090295;28;20131;-43
2023/01/07 03:50:59;;;;;;;7.47;1.73;;;;;;;-18.10;56.24;100464.78;5083087;28;20036;-43
2023/01/07 03:53:44;;;;;;;5.03;1.77;;;;;;;-18.36;55.99;100426.84;5094606;28;20032;-43
2023/01/07 03:56:28;;;;;;;2.67;1.08;;;;;;;-18.31;56.31;100437.19;5107361;28;20467;-41
2023/01/07 03:59:13;;;;;;;4.43;1.40;;;;;;;-18.15;56.54;100475.03;5101497;28;20075;-43
2023/01/07 04:02:16;;;;;;;5.45;1.48;;;;;;;-18.17;56.46;100474.03;5089934;28;20750;-42
2023/01/07 04:05:00;;;;;;;3.53;1.58;;;;;;;-18.23;56.36;100480.94;5110110;28;20044;-43
2023/01/07 04:07:45;;;;;;;3.42;1.25;;;;;;;-18.25;56.29;100493.19;5107722;28;20587;-42
2023/01/07 04:10:11;;;;;;;2.97;1.52;;;;;;;-18.31;55.98;100486.78;5075347;28;20040;-43
2023/01/07 04:12:37;;;;;;;3.20;1.23;;;;;;;-18.60;56.42;100439.56;5072784;28;20116;-43
2023/01/07 04:15:23;;;;;;;4.40;1.20;;;;;;;-18.55;56.42;100440.84;5105796;28;20637;-43
2023/01/07 04:18:08;;;;;;;3.08;1.23;;;;;;;-18.33;56.30;100490.75;5110145;28;20530;-42
2023/01/07 04:20:36;;;;;;;3.80;1.55;;;;;;;-18.33;56.58;100488.28;5109987;28;20104;-43
2023/01/07 04:23:24;;;;;;;2.30;1.20;;;;;;;-18.33;56.05;100484.19;5102276;28;20040;-43
2023/01/07 04:26:27;;;;;;;1.10;0.63;;;;;;;-18.41;56.41;100499.97;5087032;28;20056;-42
2023/01/07 04:28:53;;;;;;;2.58;1.33;;;;;;;-18.46;55.81;100511.06;5084125;28;20225;-42
2023/01/07 04:31:57;;;;;;;4.18;1.52;;;;;;;-18.51;56.33;100510.66;5109691;28;20141;-42
2023/01/07 04:34:23;;;;;;;5.38;1.77;;;;;;;-18.54;56.35;100504.56;5094449;28;20039;-43
2023/01/07 04:37:07;;;;;;;4.20;1.70;;;;;;;-18.53;55.72;100508.78;5088168;28;20044;-42
2023/01/07 04:40:12;;;;;;;3.35;1.30;;;;;;;-18.54;56.37;100510.41;5071026;28;20040;-44
2023/01/07 04:43:14;;;;;;;7.38;1.90;;;;;;;-18.57;56.05;100500.19;5097410;28;20036;-42
2023/01/07 04:45:59;;;;;;;3.55;1.88;;;;;;;-18.57;55.92;100502.69;5094560;28;20097;-43
2023/01/07 04:49:03;;;;;;;4.78;2.47;;;;;;;-18.56;55.96;100509.38;5068096;28;20036;-43
2023/01/07 04:51:48;;;;;;;5.40;2.05;;;;;;;-18.62;55.76;100502.97;5083946;28;20113;-42
2023/01/07 04:54:51;;;;;;;3.05;2.53;;;;;;;-18.77;56.50;100465.28;5098239;28;20044;-42
2023/01/07 04:57:56;;;;;;;7.53;1.70;;;;;;;-18.53;57.09;100512.13;5106807;27;20051;-43
2023/01/07 05:01:00;;;;;;;3.53;2.10;;;;;;;-18.48;56.48;100514.16;5087809;28;20510;-43
2023/01/07 05:03:29;;;;;;;8.73;2.13;;;;;;;-18.64;56.21;100494.56;5100570;28;20106;-42
2023/01/07 05:06:51;;;;;;;6.43;2.38;;;;;;;-18.46;56.51;100527.53;5105710;28;20031;-43
2023/01/07 05:09:17;;;;;;;4.85;1.50;;;;;;;-18.48;56.42;100527.44;5104014;28;20036;-43
2023/01/07 05:12:02;;;;;;;2.72;1.63;;;;;;;-18.47;56.31;100530.78;5107868;28;20043;-43
2023/01/07 05:15:06;;;;;;;1.10;1.00;;;;;;;-18.51;56.75;100540.41;5095609;28;20105;-42
2023/01/07 05:17:51;;;;;;;7.20;2.90;;;;;;;-18.77;56.21;100504.91;5068490;28;20036;-42
2023/01/07 05:20:17;;;;;;;2.72;1.33;;;;;;;-18.59;56.71;100533.03;5067170;28;20398;-42
2023/01/07 05:23:02;;;;;;;9.40;1.63;;;;;;;-18.57;56.27;100547.28;5080247;28;20138;-43
2023/01/07 05:26:05;;;;;;;5.53;1.90;;;;;;;-18.58;55.88;100554.63;5083111;28;20074;-42
2023/01/07 05:28:31;;;;;;;2.20;0.85;;;;;;;-18.99;55.90;100498.69;5100322;28;20519;-43
2023/01/07 05:31:16;;;;;;;3.13;1.60;;;;;;;-18.62;56.14;100568.31;5103193;28;20043;-43
2023/01/07 05:33:42;;;;;;;3.25;1.05;;;;;;;-18.64;56.59;100563.97;5085539;28;20538;-42
2023/01/07 05:36:26;;;;;;;3.97;1.83;;;;;;;-18.92;56.28;100525.81;5089611;28;20535;-42
2023/01/07 05:39:12;;;;;;;4.88;1.27;;;;;;;-18.68;55.52;100565.25;5087183;28;20492;-42
2023/01/07 05:41:59;;;;;;;1.95;0.93;;;;;;;-18.73;56.24;100575.50;5108559;28;20043;-43
2023/01/07 05:45:02;;;;;;;2.28;1.35;;;;;;;-18.79;56.36;100577.41;5091500;28;20039;-42
2023/01/07 05:48:23;;;;;;;3.95;0.93;;;;;;;-18.86;56.25;100577.53;5105728;28;20046;-42
2023/01/07 05:50:49;;;;;;;4.55;1.70;;;;;;;-19.10;55.70;100539.81;5076117;28;20578;-42
2023/01/07 05:53:15;;;;;;;5.22;2.47;;;;;;;-18.85;55.83;100574.34;5092959;28;20107;-47
2023/01/07 05:55:41;;;;;;;4.78;1.55;;;;;;;-18.87;55.85;100585.69;5101841;28;20101;-43
2023/01/07 05:58:45;;;;;;;3.67;2.13;;;;;;;-18.86;55.83;100588.34;5103765;28;20043;-43
2023/01/07 06:01:47;;;;;;;2.55;1.20;;;;;;;-18.87;55.84;100576.66;5098471;28;20134;-44
2023/01/07 06:04:33;;;;;;;10.13;2.03;;;;;;;-18.84;55.47;100601.75;5101586;28;20372;-42
2023/01/07 06:07:18;;;;;;;4.45;1.77;;;;;;;-19.23;55.44;100536.03;5085728;28;20047;-42
2023/01/07 06:09:45;;;;;;;3.38;1.15;;;;;;;-18.80;55.02;100610.34;5112861;28;20039;-44
2023/01/07 06:12:30;;;;;;;1.63;1.25;;;;;;;-18.82;55.33;100611.78;5107703;28;20040;-42
2023/01/07 06:15:15;;;;;;;3.00;1.50;;;;;;;-18.79;55.98;100617.94;5109152;28;20043;-42
2023/01/07 06:17:59;;;;;;;3.08;1.25;;;;;;;-18.78;55.79;100616.31;5109266;28;20040;-44
2023/01/07 06:20:43;;;;;;;4.68;1.35;;;;;;;-18.73;55.82;100625.91;5104675;28;20135;-43
2023/01/07 06:23:28;;;;;;;4.88;1.55;;;;;;;-18.71;56.30;100634.38;5109663;28;20521;-42
2023/01/07 06:26:31;;;;;;;7.72;1.55;;;;;;;-18.65;56.11;100639.94;5095854;28;20105;-43
2023/01/07 06:29:16;;;;;;;1.65;0.80;;;;;;;-18.65;56.04;100646.50;5107780;28;20048;-44
2023/01/07 06:32:01;;;;;;;3.55;1.70;;;;;;;-18.66;55.50;100647.22;5110873;28;20062;-43
2023/01/07 06:34:46;;;;;;;2.60;1.65;;;;;;;-18.65;55.19;100646.50;5093381;28;20044;-41
2023/01/07 06:37:48;;;;;;;2.55;1.27;;;;;;;-18.60;54.92;100660.19;5110586;28;20044;-43
2023/01/07 06:40:32;;;;;;;6.95;2.35;;;;;;;-18.81;55.08;100625.94;5108085;28;20040;-43
2023/01/07 06:43:17;;;;;;;2.90;1.67;;;;;;;-18.57;55.03;100668.78;5099547;28;20043;-43
2023/01/07 06:46:02;;;;;;;7.45;1.95;;;;;;;-18.80;55.48;100621.13;5077017;28;20166;-42
2023/01/07 06:48:28;;;;;;;4.70;1.90;;;;;;;-18.55;55.13;100661.50;5096787;27;20043;-42
2023/01/07 06:50:54;;;;;;;4.35;2.25;;;;;;;-18.54;55.67;100666.63;5111881;28;20040;-43
2023/01/07 06:53:38;;;;;;;2.70;1.45;;;;;;;-18.47;54.76;100669.66;5106603;28;20314;-44
2023/01/07 06:56:23;;;;;;;4.63;2.35;;;;;;;-18.41;54.69;100671.06;5111729;28;20686;-43
2023/01/07 06:59:25;;;;;;;3.75;1.75;;;;;;;-18.27;54.71;100674.88;5094533;28;20123;-44
2023/01/07 07:02:10;;;;;;;6.28;1.75;;;;;;;-18.16;55.39;100665.19;5091070;28;20114;-42
2023/01/07 07:04:54;;;;;;;3.38;1.50;;;;;;;-17.76;55.14;100672.25;5100046;28;20063;-43
2023/01/07 07:08:16;;;;;;;4.68;2.70;;;;;;;-17.00;54.32;100665.81;5110329;28;20054;-43
2023/01/07 07:11:19;;;;;;;7.78;2.20;;;;;;;-16.04;53.71;100673.44;5070090;28;20040;-45
2023/01/07 07:14:22;;;;;;;3.45;1.70;;;;;;;-15.21;51.65;100623.88;5102290;28;20516;-44
2023/01/07 07:17:08;;;;;;;5.47;3.00;;;;;;;-14.35;50.86;100672.41;5104768;28;20043;-42
2023/01/07 07:19:34;;;;;;;6.13;2.53;;;;;;;-14.04;50.18;100664.06;5052753;28;20040;-43
2023/01/07 07:22:19;;;;;;;16.10;2.88;;;;;;;-13.90;49.48;100671.00;5061988;28;20048;-41
2023/01/07 07:24:45;;;;;;;11.88;3.53;;;;;;;-14.15;49.79;100642.38;5038299;28;20052;-43
2023/01/07 07:27:29;;;;;;;22.00;5.22;;;;;;;-13.69;49.90;100688.38;5011417;28;20052;-44
2023/01/07 07:30:14;;;;;;;19.20;4.68;;;;;;;-13.39;48.84;100695.72;5045030;28;20520;-43
2023/01/07 07:33:20;;;;;;;16.35;4.88;;;;;;;-12.91;48.82;100701.00;5031270;28;20044;-43
2023/01/07 07:35:46;;;;;;;31.85;5.85;;;;;;;-12.79;47.69;100701.91;5031161;28;20575;-41
2023/01/07 07:38:33;;;;;;;23.20;5.18;;;;;;;-12.93;48.27;100705.03;5031931;28;20040;-44
2023/01/07 07:41:36;;;;;;;25.10;5.22;;;;;;;-12.98;47.44;100713.84;5065383;28;20118;-41
2023/01/07 07:44:06;;;;;;;19.48;5.53;;;;;;;-13.08;47.91;100704.75;5058987;28;20044;-42
2023/01/07 07:47:09;;;;;;;25.95;5.13;;;;;;;-12.91;48.06;100706.00;5045291;28;20505;-44
2023/01/07 07:50:12;;;;;;;22.33;4.88;;;;;;;-12.08;47.04;100723.78;5062680;28;20535;-44
2023/01/07 07:52:58;;;;;;;14.27;4.93;;;;;;;-11.61;46.69;100722.06;5063697;28;20049;-42
2023/01/07 07:55:24;;;;;;;27.35;6.65;;;;;;;-11.69;45.60;100660.50;5064632;28;20040;-42
2023/01/07 07:58:27;;;;;;;11.70;3.75;;;;;;;-10.99;45.20;100733.88;5099226;28;20107;-43
2023/01/07 08:01:49;;;;;;;10.65;3.65;;;;;;;-11.13;45.71;100737.13;5105375;28;20056;-41
2023/01/07 08:04:34;;;;;;;16.73;5.20;;;;;;;-10.88;44.50;100732.09;5108663;28;20031;-42
2023/01/07 08:07:00;;;;;;;15.13;4.28;;;;;;;-10.34;43.67;100729.84;5051012;28;20117;-43
2023/01/07 08:09:26;;;;;;;10.73;3.80;;;;;;;-9.76;44.20;100725.97;5068879;28;20051;-44
2023/01/07 08:12:11;;;;;;;8.98;3.72;;;;;;;-9.80;43.14;100729.94;5105237;28;20036;-43
2023/01/07 08:15:14;;;;;;;11.35;3.10;;;;;;;-9.88;42.60;100742.03;5095629;28;20137;-43
2023/01/07 08:17:40;;;;;;;16.67;3.85;;;;;;;-9.38;42.35;100736.78;5089144;28;20104;-42
2023/01/07 08:20:43;;;;;;;14.05;4.03;;;;;;;-8.69;42.62;100732.53;5088350;28;20491;-44
2023/01/07 08:23:09;;;;;;;13.25;3.92;;;;;;;-8.70;40.95;100709.78;5096587;28;20051;-41
2023/01/07 08:26:16;;;;;;;6.38;3.17;;;;;;;-8.51;40.82;100734.41;5059237;28;20604;-42
2023/01/07 08:28:42;;;;;;;10.15;3.15;;;;;;;-8.76;40.45;100737.16;5087087;28;20598;-42
2023/01/07 08:31:08;;;;;;;7.60;3.40;;;;;;;-9.27;40.44;100743.34;5092475;28;20055;-42
2023/01/07 08:33:52;;;;;;;6.22;2.75;;;;;;;-9.18;40.67;100730.44;5095867;28;20601;-42
2023/01/07 08:36:55;;;;;;;10.10;3.03;;;;;;;-8.59;41.17;100742.41;5089398;28;20051;-44
2023/01/07 08:39:39;;;;;;;7.63;3.70;;;;;;;-7.98;41.19;100740.81;5067835;28;20515;-43
2023/01/07 08:42:24;;;;;;;10.55;3.17;;;;;;;-7.61;40.99;100737.81;5085332;28;20422;-42
2023/01/07 08:45:10;;;;;;;7.70;2.55;;;;;;;-7.34;40.70;100739.31;5085905;28;20047;-44
2023/01/07 08:48:13;;;;;;;8.80;3.15;;;;;;;-7.80;40.34;100713.22;5095225;28;20043;-44
2023/01/07 08:51:16;;;;;;;11.32;3.22;;;;;;;-7.79;40.16;100736.00;5094430;28;20050;-44
2023/01/07 08:53:42;;;;;;;9.20;3.45;;;;;;;-7.21;39.72;100739.16;5096620;28;20040;-43
2023/01/07 08:56:26;;;;;;;7.80;3.30;;;;;;;-7.17;38.17;100708.19;5088493;28;20044;-41
2023/01/07 08:59:29;;;;;;;9.35;3.45;;;;;;;-7.39;38.14;100744.09;5086649;28;20040;-42
2023/01/07 09:02:34;;;;;;;9.73;3.22;;;;;;;-7.10;38.26;100753.22;5085934;28;20104;-43
2023/01/07 09:05:18;;;;;;;8.93;3.50;;;;;;;-6.60;37.54;100717.06;5070786;28;20186;-43
2023/01/07 09:08:14;;;;;;;6.47;3.05;;;;;;;-5.86;37.65;100750.22;5075835;28;20055;-43
2023/01/07 09:10:59;;;;;;;9.40;3.30;;;;;;;-4.87;36.47;100748.94;5095569;28;20035;-42
2023/01/07 09:14:03;;;;;;;8.50;3.08;;;;;;;-4.29;35.84;100744.66;5096580;28;20039;-43
2023/01/07 09:16:29;;;;;;;8.68;3.30;;;;;;;-4.32;36.02;100744.53;5104009;27;20063;-44
2023/01/07 09:19:32;;;;;;;7.15;3.13;;;;;;;-5.05;35.80;100747.22;5085548;28;20093;-43
2023/01/07 09:22:54;;;;;;;8.27;3.15;;;;;;;-5.19;35.89;100742.41;5117489;27;20036;-43
2023/01/07 09:25:57;;;;;;;9.80;3.63;;;;;;;-5.41;35.96;100748.94;5082929;28;20035;-43
2023/01/07 09:28:42;;;;;;;9.65;3.78;;;;;;;-4.81;34.90;100746.63;5075821;28;20056;-45
2023/01/07 09:31:44;;;;;;;11.43;4.00;;;;;;;-4.83;34.92;100706.81;5106305;27;20037;-44
2023/01/07 09:35:06;;;;;;;7.80;3.83;;;;;;;-3.97;34.71;100756.13;5076957;28;20036;-44
2023/01/07 09:37:50;;;;;;;8.65;3.40;;;;;;;-3.44;33.89;100753.19;5081420;28;20040;-43
2023/01/07 09:40:36;;;;;;;7.47;3.53;;;;;;;-3.34;33.63;100756.94;5081262;28;20040;-44
2023/01/07 09:43:29;;;;;;;12.80;3.65;;;;;;;-3.94;33.64;100743.59;5077665;28;20047;-49
2023/01/07 09:46:13;;;;;;;9.45;3.50;;;;;;;-3.25;33.83;100759.00;5090536;28;20506;-45
2023/01/07 09:49:35;;;;;;;7.20;3.53;;;;;;;-2.50;33.09;100758.34;5080847;28;20504;-44
2023/01/07 09:52:15;;;;;;;9.70;3.97;;;;;;;-2.88;32.12;100718.84;5104441;28;20036;-46
2023/01/07 09:55:11;;;;;;;14.88;5.22;;;;;;;-3.11;32.55;100763.78;5080055;28;20504;-44
2023/01/07 09:58:33;;;;;;;10.60;3.63;;;;;;;-4.13;33.01;100755.44;5088363;28;20040;-44
2023/01/07 10:01:36;;;;;;;11.23;3.83;;;;;;;-6.22;34.72;100769.53;5076469;28;20558;-46
2023/01/07 10:04:29;;;;;;;10.05;3.72;;;;;;;-7.66;36.17;100765.31;5069783;28;20086;-44
2023/01/07 10:07:27;;;;;;;7.90;3.80;;;;;;;-8.93;36.30;100722.69;5067761;28;20040;-45
2023/01/07 10:10:11;;;;;;;10.32;3.92;;;;;;;-9.45;36.71;100767.38;5077978;28;20055;-44
2023/01/07 10:13:14;;;;;;;9.55;3.95;;;;;;;-10.10;38.13;100770.75;5080274;28;20089;-45
2023/01/07 10:16:00;;;;;;;10.73;3.95;;;;;;;-10.90;38.35;100741.19;5065431;28;20040;-44
2023/01/07 10:18:59;;;;;;;8.73;3.13;;;;;;;-11.09;38.26;100775.88;5077274;28;20101;-44
2023/01/07 10:21:52;;;;;;;9.15;3.40;;;;;;;-11.44;39.27;100771.78;5079777;28;20033;-45
2023/01/07 10:24:33;;;;;;;11.95;3.75;;;;;;;-11.71;39.46;100775.72;5074839;28;20043;-44
2023/01/07 10:27:24;;;;;;;10.10;4.43;;;;;;;-12.20;39.34;100728.81;5086306;28;20391;-44
2023/01/07 10:30:18;;;;;;;11.07;3.70;;;;;;;-12.25;40.18;100772.69;5081413;28;20066;-44
2023/01/07 10:33:27;;;;;;;8.98;3.65;;;;;;;-12.52;40.33;100770.69;5106386;28;20086;-44
2023/01/07 10:36:30;;;;;;;8.27;3.20;;;;;;;-12.73;41.15;100764.94;5076728;28;20207;-44
2023/01/07 10:39:18;;;;;;;6.68;2.67;;;;;;;-12.91;41.15;100768.56;5099669;28;20511;-43
2023/01/07 10:42:10;;;;;;;10.38;3.45;;;;;;;-13.04;41.80;100770.91;5086050;28;20456;-43
2023/01/07 10:45:07;;;;;;;9.57;3.80;;;;;;;-13.20;42.55;100771.41;5057468;28;20039;-42
2023/01/07 10:48:10;;;;;;;12.85;3.47;;;;;;;-13.29;42.78;100775.69;5070321;28;20036;-45
2023/01/07 10:51:32;;;;;;;8.80;3.25;;;;;;;-13.38;42.78;100770.88;5073898;28;20050;-42
2023/01/07 10:54:48;;;;;;;9.75;2.78;;;;;;;-12.33;42.37;100776.25;5089059;28;20048;-46
2023/01/07 10:57:52;;;;;;;11.57;2.75;;;;;;;-9.99;40.64;100770.66;5012034;28;20079;-42
2023/01/07 11:00:37;;;;;;;8.30;3.13;;;;;;;-8.06;38.94;100768.94;5096335;28;20149;-43
2023/01/07 11:03:22;;;;;;;8.50;3.75;;;;;;;-7.08;37.71;100771.00;5096348;28;20058;-42
2023/01/07 11:05:52;;;;;;;7.03;2.50;;;;;;;-6.40;37.27;100769.50;5080435;28;20036;-43
2023/01/07 11:08:39;;;;;;;7.70;3.10;;;;;;;-5.63;36.31;100769.88;5075730;28;20066;-43
2023/01/07 11:11:07;;;;;;;8.60;3.15;;;;;;;-4.83;35.73;100778.69;5081651;28;20043;-44
2023/01/07 11:13:58;;;;;;;9.93;3.08;;;;;;;-3.98;35.60;100782.34;5087273;28;20039;-44
2023/01/07 11:16:45;;;;;;;7.90;3.33;;;;;;;-3.49;35.18;100784.31;5074467;28;20089;-42
2023/01/07 11:20:07;;;;;;;8.82;3.28;;;;;;;-3.42;34.60;100778.69;5079239;28;20131;-42
2023/01/07 11:22:53;;;;;;;11.75;3.90;;;;;;;-3.23;34.37;100776.03;5088286;28;20044;-44
2023/01/07 11:25:37;;;;;;;9.10;3.60;;;;;;;-3.13;34.10;100757.75;5097760;28;20044;-44
2023/01/07 11:28:26;;;;;;;8.77;3.58;;;;;;;-2.63;33.55;100779.97;5089950;28;20058;-46
2023/01/07 11:31:48;;;;;;;7.07;3.53;;;;;;;-2.40;33.46;100778.22;5101961;28;20439;-45
2023/01/07 11:34:51;;;;;;;7.97;3.53;;;;;;;-2.16;33.05;100778.22;5091318;28;20055;-43
2023/01/07 11:37:30;;;;;;;11.77;4.75;;;;;;;-2.16;32.79;100784.19;5087601;28;20700;-44
2023/01/07 11:40:33;;;;;;;11.82;4.57;;;;;;;-2.19;32.78;100781.53;5091215;28;20093;-45
2023/01/07 11:43:37;;;;;;;10.60;4.18;;;;;;;-2.20;32.53;100782.31;5085500;28;20523;-44
2023/01/07 11:46:04;;;;;;;10.77;4.43;;;;;;;-2.25;32.09;100796.59;5117556;27;20044;-42
2023/01/07 11:49:07;;;;;;;17.27;5.03;;;;;;;-2.30;32.21;100804.88;5094782;28;20032;-44
2023/01/07 11:51:39;;;;;;;14.57;5.82;;;;;;;-2.91;31.61;100807.75;5088414;28;20139;-42
2023/01/07 11:54:25;;;;;;;17.17;6.05;;;;;;;-4.20;32.85;100799.16;5088636;28;20051;-43
2023/01/07 11:57:19;;;;;;;15.65;5.70;;;;;;;-5.51;33.45;100805.06;5097920;28;20083;-43
2023/01/07 12:00:41;;;;;;;13.20;5.32;;;;;;;-6.70;34.63;100801.69;5094401;28;20040;-42
2023/01/07 12:03:44;;;;;;;11.00;4.85;;;;;;;-7.92;35.19;100798.34;5078852;28;20050;-44
2023/01/07 12:06:50;;;;;;;12.43;4.05;;;;;;;-9.06;36.95;100800.03;5079225;28;20076;-50
2023/01/07 12:10:12;;;;;;;12.43;4.68;;;;;;;-9.70;37.62;100805.22;5080521;28;20040;-44
2023/01/07 12:13:00;;;;;;;13.02;4.60;;;;;;;-10.20;37.93;100809.53;5077632;28;20511;-43
2023/01/07 12:15:54;;;;;;;9.52;4.20;;;;;;;-10.62;38.28;100800.00;5080838;28;20044;-47
2023/01/07 12:18:44;;;;;;;10.52;4.22;;;;;;;-10.86;38.96;100813.44;5088882;28;20086;-44
2023/01/07 12:21:48;;;;;;;13.80;5.05;;;;;;;-11.22;39.24;100814.28;5088177;28;20082;-45
2023/01/07 12:24:48;;;;;;;10.93;3.40;;;;;;;-11.36;39.61;100817.50;5088353;28;20127;-44
2023/01/07 12:28:03;;;;;;;14.52;4.90;;;;;;;-11.66;40.26;100824.56;5086654;28;20035;-44
2023/01/07 12:31:07;;;;;;;7.63;3.50;;;;;;;-11.94;41.27;100820.91;5085911;28;20041;-46
2023/01/07 12:34:29;;;;;;;12.23;3.17;;;;;;;-11.87;41.40;100822.19;5081852;28;20071;-44
2023/01/07 12:37:31;;;;;;;9.13;3.13;;;;;;;-12.02;41.33;100817.81;5081885;28;20044;-45
2023/01/07 12:40:34;;;;;;;10.85;4.30;;;;;;;-12.18;41.75;100826.63;5079671;28;20478;-44
2023/01/07 12:43:11;;;;;;;8.85;3.92;;;;;;;-12.35;42.04;100824.53;5077183;28;20043;-44
2023/01/07 12:46:03;;;;;;;9.77;3.60;;;;;;;-12.61;42.75;100783.38;5066127;28;20093;-45
2023/01/07 12:49:01;;;;;;;9.05;3.47;;;;;;;-12.52;43.50;100815.75;5096226;28;20093;-45
2023/01/07 12:52:04;;;;;;;11.43;3.42;;;;;;;-12.60;43.13;100819.28;5093408;28;20100;-45
2023/01/07 12:54:51;;;;;;;7.18;2.58;;;;;;;-12.66;43.41;100827.22;5078068;28;20048;-43
2023/01/07 12:58:06;;;;;;;5.95;2.95;;;;;;;-12.77;43.43;100825.56;5074075;28;20546;-44
2023/01/07 13:01:10;;;;;;;10.85;3.63;;;;;;;-13.01;44.20;100826.19;5071924;28;20066;-44
2023/01/07 13:04:24;;;;;;;5.45;3.05;;;;;;;-13.22;44.19;100830.44;5083532;28;20522;-43
2023/01/07 13:07:14;;;;;;;12.98;3.92;;;;;;;-13.32;45.20;100838.00;5071171;28;20044;-43
2023/01/07 13:09:54;;;;;;;8.57;3.58;;;;;;;-13.60;45.05;100799.97;5090274;28;20147;-44